Terminal Aerodrome Forecast
Issued by NWS

Home | Current Version | Previous Version | Text Only | Print | Product List | Glossary On
Versions: 1 2 3 4 5 6 7 8 9 10 11 12
995
FTUS44 KTSA 281136
TAFFYV
TAF
KFYV 281136Z 2812/2912 VRB03KT P6SM SCT020 BKN035
      TEMPO 2812/2816 BKN020
     FM281600 36007KT P6SM BKN035
     FM290100 00000KT P6SM SCT250=

USA.gov is the U.S. government's official web portal to all federal, state and local government web resources and services.